"TOA5","C150","CR1000","43625","CR1000.Std.22","CPU:247411_r6_eppley7.CR1","60899","eppley_data"
"TIMESTAMP","RECORD","PIR_net","Case_Temp_K","PSP_in_Avg","PSP_in_Min","PSP_in_Max","PIR_in_Avg","PIR_in_Min","PIR_in_Max","wd_2minavg","ws_2minavg","AirTC","RH","BP_mbar"
"TS","RN","","","","","","","","","","","Deg C","Percent","Millibar"
"","","Smp","Smp","Avg","Min","Max","Avg","Min","Max","Smp","Smp","Smp","Smp","Smp"
"2019-07-20 10:10:00",74813,"NAN","NAN","NAN","NAN","NAN","NAN","NAN","NAN",41.65,3.016,-38.59,63.71,995
"2019-07-20 10:20:00",74814,"NAN","NAN","NAN","NAN","NAN","NAN","NAN","NAN",32.37,3.304,-38.77,64.29,995
"2019-07-20 10:30:00",74815,"NAN","NAN","NAN","NAN","NAN","NAN","NAN","NAN",23.63,3.072,-38.59,64.47,996
"2019-07-20 10:40:00",74816,"NAN","NAN","NAN","NAN","NAN","NAN","NAN","NAN",0.34,2.968,-38.32,64.85,996
"2019-07-20 10:50:00",74817,"NAN","NAN","NAN","NAN","NAN","NAN","NAN","NAN",345.1,4.685,-37.26,65.74,996
"2019-07-20 11:00:00",74818,"NAN","NAN","NAN","NAN","NAN","NAN","NAN","NAN",355.2,2.99,-37.5,64.58,996
"2019-07-20 11:10:00",74819,"NAN","NAN","NAN","NAN","NAN","NAN","NAN","NAN",351.6,1.266,-36.92,65.23,996
"2019-07-20 11:20:00",74820,"NAN","NAN","NAN","NAN","NAN","NAN","NAN","NAN",11.2,2.684,-37.22,65.02,996
"2019-07-20 11:30:00",74821,"NAN","NAN","NAN","NAN","NAN","NAN","NAN","NAN",24.31,2.654,-37.46,64.95,997
"2019-07-20 11:40:00",74822,"NAN","NAN","NAN","NAN","NAN","NAN","NAN","NAN",15.63,2.645,-38.01,64.3,997
"2019-07-20 11:50:00",74823,"NAN","NAN","NAN","NAN","NAN","NAN","NAN","NAN",11.91,3.086,-37.74,64.78,997
"2019-07-20 12:00:00",74824,"NAN","NAN","NAN","NAN","NAN","NAN","NAN","NAN",0.333,3.55,-37.57,65.12,997
"2019-07-20 12:10:00",74825,"NAN","NAN","NAN","NAN","NAN","NAN","NAN","NAN",0.446,3.419,-37.02,65.5,997
"2019-07-20 12:20:00",74826,"NAN","NAN","NAN","NAN","NAN","NAN","NAN","NAN",61.74,1.326,-37.94,63.75,997
"2019-07-20 12:30:00",74827,"NAN","NAN","NAN","NAN","NAN","NAN","NAN","NAN",3.261,1.864,-37.09,66.26,998
"2019-07-20 12:40:00",74828,"NAN","NAN","NAN","NAN","NAN","NAN","NAN","NAN",326.2,0.432,-37.46,65.81,998
"2019-07-20 12:50:00",74829,"NAN","NAN","NAN","NAN","NAN","NAN","NAN","NAN",58.31,0.115,-35.75,68.41,998
"2019-07-20 13:00:00",74830,"NAN","NAN","NAN","NAN","NAN","NAN","NAN","NAN",158,3.134,-39.11,59.98,998
"2019-07-20 13:10:00",74831,"NAN","NAN","NAN","NAN","NAN","NAN","NAN","NAN",107.2,2.715,-39.79,61.97,998
"2019-07-20 13:20:00",74832,"NAN","NAN","NAN","NAN","NAN","NAN","NAN","NAN",103.2,2.862,-39.79,61.66,998
"2019-07-20 13:30:00",74833,"NAN","NAN","NAN","NAN","NAN","NAN","NAN","NAN",99.5,2.526,-39.86,61.08,999
"2019-07-20 13:40:00",74834,"NAN","NAN","NAN","NAN","NAN","NAN","NAN","NAN",77.98,0.87,-39.86,62.01,999
"2019-07-20 13:50:00",74835,"NAN","NAN","NAN","NAN","NAN","NAN","NAN","NAN",95.9,1.325,-39.79,61.61,999
"2019-07-20 14:00:00",74836,"NAN","NAN","NAN","NAN","NAN","NAN","NAN","NAN",89.5,1.288,-39.83,61.89,999